Time;durP1;ratioP1;P1;durP2;ratioP2;P2;SDS_P1;SDS_P2;PMS_P1;PMS_P2;Temp;Humidity;BMP_temperature;BMP_pressure;BME280_temperature;BME280_humidity;BME280_pressure;Samples;Min_cycle;Max_cycle;Signal;HPM_P1;HPM_P2
2022/04/13 00:01:15;;;;;;;20.50;10.73;;;;;;;10.39;40.31;100625.41;4846665;28;96802;-86
2022/04/13 00:03:42;;;;;;;24.42;11.45;;;;;;;10.25;40.33;100588.19;4846065;28;97116;-87
2022/04/13 00:06:08;;;;;;;24.60;11.45;;;;;;;10.19;40.84;100574.31;4861866;28;101435;-87
2022/04/13 00:08:34;;;;;;;22.73;10.07;;;;;;;10.22;40.40;100583.00;4862116;28;101111;-87
2022/04/13 00:11:00;;;;;;;18.80;9.93;;;;;;;10.47;40.35;100617.31;4846196;28;96984;-87
2022/04/13 00:13:26;;;;;;;20.92;9.45;;;;;;;10.33;40.41;100608.06;4877804;28;96893;-88
2022/04/13 00:15:52;;;;;;;23.50;11.35;;;;;;;10.13;40.51;100578.88;4861809;28;98554;-87
2022/04/13 00:18:17;;;;;;;23.45;10.70;;;;;;;10.17;40.78;100594.47;4854648;28;100953;-87
2022/04/13 00:20:45;;;;;;;17.33;9.52;;;;;;;10.25;40.76;100594.28;4865104;28;96916;-86
2022/04/13 00:23:11;;;;;;;17.70;9.10;;;;;;;9.87;41.29;100584.84;4888174;28;97311;-87
2022/04/13 00:25:39;;;;;;;17.75;9.30;;;;;;;9.90;41.77;100611.84;4864714;28;101723;-88
2022/04/13 00:28:10;;;;;;;20.38;10.77;;;;;;;9.97;41.52;100616.00;4864979;28;100392;-87
2022/04/13 00:30:36;;;;;;;23.38;11.07;;;;;;;9.83;41.16;100575.31;4880510;28;96670;-89
2022/04/13 00:33:02;;;;;;;23.52;10.63;;;;;;;10.17;41.25;100607.59;4864847;28;96977;-87
2022/04/13 00:35:28;;;;;;;21.27;10.77;;;;;;;9.81;41.28;100567.53;4877381;28;101492;-87
2022/04/13 00:37:53;;;;;;;21.10;10.30;;;;;;;9.95;41.41;100614.34;4890380;28;98354;-87
2022/04/13 00:40:19;;;;;;;20.08;9.88;;;;;;;9.80;41.57;100570.16;4865237;28;96796;-87
2022/04/13 00:42:45;;;;;;;21.45;9.57;;;;;;;9.89;42.10;100609.25;4880629;28;97127;-87
2022/04/13 00:45:10;;;;;;;18.20;9.43;;;;;;;9.89;41.46;100617.13;4897319;28;98499;-88
2022/04/13 00:47:39;;;;;;;19.70;9.80;;;;;;;9.71;41.64;100587.00;4895468;28;99909;-87
2022/04/13 00:50:06;;;;;;;17.77;9.40;;;;;;;9.89;42.01;100611.88;4872252;28;96692;-87
2022/04/13 00:52:34;;;;;;;19.20;9.73;;;;;;;9.81;42.52;100603.38;4864753;28;97928;-88
2022/04/13 00:54:59;;;;;;;18.55;9.65;;;;;;;9.56;42.72;100600.50;4879378;28;101517;-88
2022/04/13 00:57:27;;;;;;;18.40;9.90;;;;;;;9.74;42.37;100618.38;4876864;28;99816;-87
2022/04/13 00:59:54;;;;;;;19.15;9.55;;;;;;;9.89;42.24;100618.00;4866127;28;97062;-88
2022/04/13 01:02:21;;;;;;;22.15;9.13;;;;;;;9.98;42.33;100614.28;4880201;28;96646;-88
2022/04/13 01:04:48;;;;;;;21.17;10.25;;;;;;;9.94;42.31;100610.84;4879543;28;101959;-87
2022/04/13 01:07:13;;;;;;;20.27;9.70;;;;;;;9.83;42.59;100615.53;4880237;28;97902;-87
2022/04/13 01:09:40;;;;;;;17.80;8.98;;;;;;;9.59;42.51;100598.66;4880023;28;96703;-87
2022/04/13 01:12:06;;;;;;;20.98;9.93;;;;;;;9.69;42.54;100607.19;4871318;28;96900;-87
2022/04/13 01:14:34;;;;;;;18.85;9.98;;;;;;;9.85;42.85;100624.22;4879748;28;99543;-87
2022/04/13 01:17:00;;;;;;;22.65;10.50;;;;;;;9.90;42.68;100630.19;4879843;28;101122;-89
2022/04/13 01:19:26;;;;;;;20.83;10.05;;;;;;;9.61;42.41;100577.66;4863458;28;96867;-87
2022/04/13 01:21:53;;;;;;;19.90;9.63;;;;;;;9.87;42.36;100603.19;4860795;28;97378;-87
2022/04/13 01:24:20;;;;;;;22.38;10.43;;;;;;;9.85;42.63;100618.09;4861669;28;100828;-87
2022/04/13 01:26:46;;;;;;;18.77;10.05;;;;;;;9.77;42.44;100594.69;4863506;28;102487;-87
2022/04/13 01:29:12;;;;;;;20.42;9.48;;;;;;;9.68;42.91;100601.03;4879639;28;96832;-87
2022/04/13 01:31:39;;;;;;;18.67;10.38;;;;;;;9.72;42.86;100615.81;4864110;28;97151;-88
2022/04/13 01:34:06;;;;;;;18.42;9.30;;;;;;;9.77;43.46;100614.81;4879653;28;101598;-87
2022/04/13 01:36:33;;;;;;;19.50;11.00;;;;;;;9.74;43.04;100613.13;4864318;28;101459;-88
2022/04/13 01:38:59;;;;;;;23.90;10.90;;;;;;;9.90;42.92;100624.09;4863549;28;96918;-87
2022/04/13 01:41:24;;;;;;;19.70;10.52;;;;;;;9.94;42.62;100620.47;4864293;28;96999;-87
2022/04/13 01:43:50;;;;;;;21.95;10.52;;;;;;;9.94;42.67;100623.97;4894918;28;98627;-87
2022/04/13 01:46:15;;;;;;;19.45;10.98;;;;;;;9.87;42.99;100603.19;4895516;28;98261;-87
2022/04/13 01:48:41;;;;;;;21.05;10.18;;;;;;;9.76;43.29;100624.44;4879027;28;96801;-90
2022/04/13 01:51:07;;;;;;;20.20;10.48;;;;;;;9.56;43.35;100597.88;4879590;28;96916;-88
2022/04/13 01:53:33;;;;;;;21.33;11.52;;;;;;;9.69;43.10;100615.88;4879537;28;98177;-87
2022/04/13 01:55:58;;;;;;;20.48;10.93;;;;;;;9.63;43.56;100617.78;4879078;28;101423;-88
2022/04/13 01:58:24;;;;;;;21.15;10.95;;;;;;;9.65;44.13;100609.00;4876500;28;97333;-88
2022/04/13 02:00:56;;;;;;;22.33;11.60;;;;;;;9.65;43.23;100616.00;4863799;28;96849;-87
2022/04/13 02:03:23;;;;;;;24.27;11.18;;;;;;;9.58;43.33;100604.81;4880067;28;100632;-88
2022/04/13 02:05:50;;;;;;;22.98;11.63;;;;;;;9.66;44.07;100613.34;4878653;28;101470;-87
2022/04/13 02:08:16;;;;;;;21.42;11.10;;;;;;;9.36;44.21;100572.19;4878877;28;96694;-88
2022/04/13 02:10:41;;;;;;;21.45;12.13;;;;;;;9.63;43.79;100605.56;4863551;28;96841;-89
2022/04/13 02:13:07;;;;;;;23.27;11.60;;;;;;;9.62;44.23;100626.56;4895155;28;98916;-87
2022/04/13 02:15:33;;;;;;;21.90;12.35;;;;;;;9.64;44.13;100619.53;4863481;28;101240;-87
2022/04/13 02:17:58;;;;;;;24.23;12.95;;;;;;;9.56;43.95;100609.22;4862551;28;96858;-87
2022/04/13 02:20:24;;;;;;;24.25;12.02;;;;;;;9.30;44.40;100595.00;4879155;28;96708;-87
2022/04/13 02:22:49;;;;;;;22.42;11.23;;;;;;;9.33;44.70;100608.94;4895064;28;97480;-87
2022/04/13 02:25:15;;;;;;;22.35;12.38;;;;;;;9.30;44.60;100607.25;4894540;28;98131;-87
2022/04/13 02:27:42;;;;;;;23.90;12.55;;;;;;;9.35;44.55;100622.88;4861908;28;97073;-90
2022/04/13 02:30:08;;;;;;;22.70;12.23;;;;;;;9.31;44.95;100611.63;4865780;28;97029;-87
2022/04/13 02:32:43;;;;;;;21.63;11.40;;;;;;;9.19;44.70;100611.88;4862769;28;101905;-88
2022/04/13 02:35:09;;;;;;;24.33;12.57;;;;;;;9.31;44.72;100616.84;4879844;28;101489;-87
2022/04/13 02:37:34;;;;;;;25.67;12.65;;;;;;;9.24;44.95;100610.88;4882056;28;96638;-88
2022/04/13 02:40:00;;;;;;;24.30;13.13;;;;;;;8.94;44.92;100572.34;4863104;28;97046;-87
2022/04/13 02:42:31;;;;;;;20.80;12.48;;;;;;;9.22;45.51;100622.28;4882350;28;98431;-87
2022/04/13 02:44:57;;;;;;;23.65;11.43;;;;;;;9.29;44.97;100629.97;4881986;28;101186;-87
2022/04/13 02:47:22;;;;;;;31.77;12.65;;;;;;;9.16;45.55;100627.66;4882039;28;97035;-88
2022/04/13 02:49:48;;;;;;;19.85;12.32;;;;;;;9.13;45.42;100630.34;4866590;28;96977;-87
2022/04/13 02:52:13;;;;;;;22.52;13.85;;;;;;;9.14;45.65;100627.72;4881863;28;100096;-87
2022/04/13 02:54:39;;;;;;;23.45;12.95;;;;;;;9.07;45.65;100627.00;4860181;28;100380;-87
2022/04/13 02:57:04;;;;;;;23.38;13.00;;;;;;;9.14;45.39;100619.00;4880848;28;96714;-87
2022/04/13 02:59:30;;;;;;;29.17;15.18;;;;;;;9.16;45.34;100617.19;4882502;28;97173;-86
2022/04/13 03:01:56;;;;;;;29.83;14.20;;;;;;;8.86;45.89;100597.81;4881741;28;101125;-87
2022/04/13 03:04:21;;;;;;;29.27;15.85;;;;;;;8.91;45.73;100598.59;4865886;28;101526;-87
2022/04/13 03:06:47;;;;;;;33.15;15.55;;;;;;;9.02;45.46;100620.16;4865871;28;96957;-87
2022/04/13 03:09:12;;;;;;;30.73;16.63;;;;;;;8.93;45.50;100612.47;4882228;28;96885;-88
2022/04/13 03:11:40;;;;;;;37.45;18.20;;;;;;;8.90;45.35;100605.59;4882167;28;97492;-87
2022/04/13 03:14:06;;;;;;;34.53;16.42;;;;;;;8.72;46.08;100587.66;4879955;28;98282;-87
2022/04/13 03:16:32;;;;;;;36.35;17.83;;;;;;;8.94;45.80;100624.69;4866190;28;96730;-87
2022/04/13 03:18:57;;;;;;;46.28;21.05;;;;;;;8.92;46.08;100629.09;4869422;28;97117;-87
2022/04/13 03:21:24;;;;;;;45.50;20.40;;;;;;;8.79;46.19;100626.75;4846285;28;101330;-87
2022/04/13 03:23:50;;;;;;;52.72;22.83;;;;;;;9.00;46.06;100632.41;4874527;28;98346;-87
2022/04/13 03:26:16;;;;;;;42.42;20.98;;;;;;;8.86;46.11;100637.09;4843961;29;96805;-87
2022/04/13 03:28:41;;;;;;;37.20;18.70;;;;;;;8.51;46.75;100626.47;4858739;28;96943;-87
2022/04/13 03:31:07;;;;;;;36.72;18.50;;;;;;;8.41;47.21;100635.41;4879142;28;99118;-87
2022/04/13 03:33:32;;;;;;;37.38;19.08;;;;;;;8.43;47.22;100644.06;4862227;28;100219;-87
2022/04/13 03:35:58;;;;;;;30.77;17.42;;;;;;;8.44;46.95;100650.19;4858077;29;98399;-87
2022/04/13 03:38:23;;;;;;;40.20;18.17;;;;;;;8.56;46.63;100645.56;4856813;28;97060;-89
2022/04/13 03:40:49;;;;;;;37.92;19.45;;;;;;;8.35;47.32;100640.75;4862286;28;98498;-88
2022/04/13 03:43:15;;;;;;;38.25;18.42;;;;;;;8.46;47.25;100653.63;4878308;28;97832;-87
2022/04/13 03:45:40;;;;;;;36.33;18.80;;;;;;;8.50;46.70;100632.59;4877580;28;97312;-87
2022/04/13 03:48:06;;;;;;;31.45;17.27;;;;;;;8.56;47.12;100653.41;4862104;28;97137;-88
2022/04/13 03:50:31;;;;;;;35.58;18.00;;;;;;;8.46;46.58;100612.63;4862483;28;101434;-88
2022/04/13 03:52:57;;;;;;;36.53;18.52;;;;;;;8.61;46.44;100654.19;4861704;28;100604;-88
2022/04/13 03:55:22;;;;;;;39.58;17.58;;;;;;;8.60;46.58;100655.06;4858942;29;96845;-88
2022/04/13 03:57:50;;;;;;;35.95;16.50;;;;;;;8.65;46.63;100646.28;4858866;28;96682;-87
2022/04/13 04:00:17;;;;;;;40.70;17.92;;;;;;;8.47;46.75;100619.59;4875220;28;97236;-88
2022/04/13 04:02:43;;;;;;;40.08;19.45;;;;;;;8.55;46.73;100651.69;4862259;28;98080;-87
2022/04/13 04:05:08;;;;;;;41.90;18.73;;;;;;;8.44;47.21;100645.81;4843924;28;96968;-87
2022/04/13 04:07:34;;;;;;;40.33;19.35;;;;;;;8.53;46.94;100661.31;4852069;28;97129;-87
2022/04/13 04:10:01;;;;;;;33.00;17.40;;;;;;;8.41;47.35;100663.31;4876965;28;97939;-88
2022/04/13 04:12:27;;;;;;;39.85;17.58;;;;;;;8.28;47.40;100660.03;4861262;28;101563;-88
2022/04/13 04:14:53;;;;;;;35.42;17.88;;;;;;;8.44;47.08;100669.38;4861815;28;96739;-87
2022/04/13 04:17:18;;;;;;;33.47;16.92;;;;;;;8.06;47.75;100631.69;4846452;28;96952;-88
2022/04/13 04:19:52;;;;;;;41.63;18.10;;;;;;;8.36;47.27;100679.06;4864057;28;101144;-89
2022/04/13 04:22:26;;;;;;;35.70;17.60;;;;;;;8.16;47.29;100632.38;4893557;28;97480;-87
2022/04/13 04:25:29;;;;;;;42.08;19.13;;;;;;;8.37;47.38;100665.09;4881295;28;96708;-88
2022/04/13 04:28:18;;;;;;;35.88;18.08;;;;;;;8.19;47.50;100649.75;4862909;28;97127;-87
2022/04/13 04:30:44;;;;;;;35.08;19.30;;;;;;;8.18;47.87;100672.44;4866878;28;100988;-86
2022/04/13 04:33:14;;;;;;;37.90;19.27;;;;;;;7.92;48.40;100662.44;4851968;28;101921;-87
2022/04/13 04:36:02;;;;;;;37.92;18.55;;;;;;;8.04;48.06;100651.78;4845933;28;97230;-87
2022/04/13 04:38:32;;;;;;;39.97;19.67;;;;;;;8.21;47.89;100668.91;4845813;28;96925;-87
2022/04/13 04:40:58;;;;;;;38.80;18.75;;;;;;;8.09;47.89;100664.78;4866074;28;99936;-87
2022/04/13 04:43:29;;;;;;;37.45;19.45;;;;;;;8.16;48.00;100675.06;4878055;28;98353;-87
2022/04/13 04:46:18;;;;;;;39.10;20.15;;;;;;;8.10;48.11;100675.19;4867026;28;96760;-87
2022/04/13 04:48:46;;;;;;;37.30;19.90;;;;;;;8.11;48.15;100666.44;4845744;28;97392;-89
2022/04/13 04:51:31;;;;;;;;;;;;;;;;;;;;;
2022/04/13 04:54:38;;;;;;;35.83;18.70;;;;;;;8.24;47.74;100661.00;4863303;28;101204;-87
2022/04/13 04:57:04;;;;;;;39.40;18.30;;;;;;;8.23;48.02;100662.75;4832281;28;97245;-88
2022/04/13 05:00:25;;;;;;;30.75;16.35;;;;;;;8.27;48.30;100674.03;4854513;28;97371;-87
2022/04/13 05:02:54;;;;;;;27.38;16.25;;;;;;;8.25;47.76;100660.09;4799113;29;100158;-88
2022/04/13 05:05:20;;;;;;;30.15;16.30;;;;;;;8.47;47.67;100687.63;4773695;29;101925;-87
2022/04/13 05:07:47;;;;;;;32.20;14.82;;;;;;;8.50;47.50;100679.72;4788886;29;97170;-92
2022/04/13 05:14:16;;;;;;;28.02;15.90;;;;;;;8.30;48.29;100680.06;4795767;29;97637;-88
2022/04/13 05:17:46;;;;;;;35.58;15.35;;;;;;;8.60;47.86;100689.06;4765807;29;99166;-89
2022/04/13 05:23:44;;;;;;;43.97;18.60;;;;;;;8.74;47.72;100683.56;4686355;30;97219;-86
2022/04/13 05:26:11;;;;;;;38.40;17.38;;;;;;;8.80;47.26;100677.34;4665139;30;97500;-88
2022/04/13 05:28:36;;;;;;;37.78;17.17;;;;;;;8.84;47.37;100652.81;4656911;30;98379;-85
2022/04/13 05:31:02;;;;;;;30.65;16.98;;;;;;;9.17;46.93;100674.78;4709706;29;97603;-81
2022/04/13 05:33:28;;;;;;;38.33;18.52;;;;;;;9.28;46.70;100671.94;4730036;29;97182;-82
2022/04/13 05:35:54;;;;;;;31.70;17.10;;;;;;;9.42;46.61;100684.69;4727537;29;101750;-81
2022/04/13 05:38:19;;;;;;;34.08;17.25;;;;;;;9.52;46.61;100688.84;4744629;29;101601;-82
2022/04/13 05:40:45;;;;;;;35.20;18.45;;;;;;;9.66;45.76;100688.50;4800065;29;96954;-77
2022/04/13 05:43:11;;;;;;;39.33;17.98;;;;;;;9.81;45.98;100682.88;4803167;29;96862;-85
2022/04/13 05:45:36;;;;;;;31.75;17.33;;;;;;;9.94;45.66;100670.31;4812911;29;100345;-84
2022/04/13 05:48:02;;;;;;;33.80;17.52;;;;;;;10.31;44.83;100690.38;4801229;29;101293;-84
2022/04/13 05:50:28;;;;;;;34.53;18.42;;;;;;;10.55;44.35;100684.44;4811621;29;97618;-85
2022/04/13 05:52:53;;;;;;;36.80;19.88;;;;;;;10.72;44.44;100689.19;4816260;29;97030;-84
2022/04/13 05:55:19;;;;;;;44.50;19.60;;;;;;;10.99;43.98;100691.91;4816237;29;100904;-83
2022/04/13 05:57:45;;;;;;;37.15;19.23;;;;;;;11.07;43.39;100671.53;4819518;29;98543;-83
2022/04/13 06:00:12;;;;;;;32.97;17.75;;;;;;;11.40;43.00;100669.63;4852800;28;97039;-83
2022/04/13 06:02:41;;;;;;;38.95;19.60;;;;;;;11.54;42.27;100661.28;4874374;28;97001;-82
2022/04/13 06:05:08;;;;;;;38.30;19.65;;;;;;;11.72;42.21;100665.09;4843551;28;101547;-83
2022/04/13 06:07:33;;;;;;;32.60;18.35;;;;;;;11.92;42.32;100674.97;4858036;28;97626;-84
2022/04/13 06:10:01;;;;;;;35.33;19.42;;;;;;;12.21;41.55;100664.28;4865763;28;98138;-84
2022/04/13 06:12:27;;;;;;;29.83;18.88;;;;;;;12.41;41.13;100660.94;4867605;28;96763;-84
2022/04/13 06:15:09;;;;;;;31.67;18.38;;;;;;;12.56;41.22;100688.50;4868634;28;97681;-84
2022/04/13 06:17:35;;;;;;;30.33;18.50;;;;;;;12.74;40.76;100683.47;4861595;28;101389;-83
2022/04/13 06:20:01;;;;;;;34.63;19.52;;;;;;;13.16;39.96;100699.44;4883898;28;96773;-83
2022/04/13 06:22:27;;;;;;;32.88;18.33;;;;;;;13.46;39.15;100692.13;4865784;28;96967;-83
2022/04/13 06:24:53;;;;;;;35.53;18.80;;;;;;;13.60;39.05;100691.56;4898343;28;101554;-83
2022/04/13 06:27:19;;;;;;;29.90;17.13;;;;;;;13.91;38.74;100699.09;4865525;28;100275;-84
2022/04/13 06:45:02;;;;;;;38.60;20.85;;;;;;;14.97;37.63;100685.66;4678224;30;98192;-82
2022/04/13 06:47:44;;;;;;;33.55;19.63;;;;;;;15.19;37.19;100689.03;4688833;29;96871;-80
2022/04/13 06:51:38;;;;;;;35.72;20.92;;;;;;;15.53;36.72;100697.97;4676776;29;99418;-87
2022/04/13 06:54:04;;;;;;;35.45;21.55;;;;;;;15.73;36.25;100695.25;4613520;30;97616;-85
2022/04/13 06:56:32;;;;;;;35.40;18.50;;;;;;;16.19;35.88;100706.16;4677961;30;98410;-86
2022/04/13 06:58:58;;;;;;;35.60;20.58;;;;;;;16.63;35.39;100697.69;4681386;30;97059;-85
2022/04/13 07:01:24;;;;;;;35.20;19.52;;;;;;;16.84;35.16;100687.78;4682462;30;98613;-86
2022/04/13 07:03:50;;;;;;;36.28;19.83;;;;;;;17.49;34.43;100700.13;4665976;30;101657;-86
2022/04/13 07:06:15;;;;;;;38.70;21.13;;;;;;;17.73;33.81;100709.31;4667187;30;96953;-85
2022/04/13 07:08:41;;;;;;;34.70;21.55;;;;;;;17.43;33.62;100704.81;4688420;29;97110;-86
2022/04/13 07:14:36;;;;;;;33.33;19.45;;;;;;;17.70;33.87;100716.59;4728703;29;101224;-84
2022/04/13 07:17:01;;;;;;;35.85;20.65;;;;;;;17.96;33.58;100692.06;4742348;29;97537;-87
2022/04/13 07:19:27;;;;;;;39.92;20.17;;;;;;;18.09;33.09;100708.13;4777270;29;97017;-85
2022/04/13 07:21:53;;;;;;;30.98;20.55;;;;;;;17.80;33.55;100704.53;4804384;29;96980;-84
2022/04/13 07:24:18;;;;;;;34.95;19.65;;;;;;;17.84;33.84;100706.94;4841759;28;98707;-86
2022/04/13 07:26:44;;;;;;;32.53;21.27;;;;;;;18.57;32.97;100716.78;4874793;28;96878;-86
2022/04/13 07:29:09;;;;;;;30.30;19.80;;;;;;;18.75;32.94;100712.16;4865124;28;97619;-86
2022/04/13 07:31:35;;;;;;;30.55;19.15;;;;;;;19.05;32.48;100709.38;4880461;28;101454;-86
2022/04/13 07:34:02;;;;;;;29.15;19.23;;;;;;;19.22;32.48;100700.31;4864921;28;101203;-85
2022/04/13 07:36:28;;;;;;;32.03;21.13;;;;;;;19.90;31.37;100700.31;4865467;28;96701;-84
2022/04/13 07:38:54;;;;;;;29.20;20.13;;;;;;;20.45;30.91;100708.16;4880808;28;97225;-84
2022/04/13 07:41:19;;;;;;;30.13;20.50;;;;;;;20.62;29.99;100685.69;4880592;28;98630;-85
2022/04/13 07:43:45;;;;;;;34.67;19.95;;;;;;;20.58;30.61;100695.72;4894305;28;97925;-84
2022/04/13 07:46:11;;;;;;;29.20;18.88;;;;;;;20.91;30.51;100692.47;4861547;28;97260;-85
2022/04/13 07:48:36;;;;;;;28.05;18.80;;;;;;;21.21;29.99;100701.94;4880657;28;97150;-84
2022/04/13 07:51:02;;;;;;;30.50;19.17;;;;;;;21.68;29.47;100689.59;4864541;28;101242;-84
2022/04/13 07:53:28;;;;;;;29.65;20.45;;;;;;;21.80;28.75;100701.19;4880632;28;98356;-85
2022/04/13 07:55:53;;;;;;;27.52;18.45;;;;;;;21.62;28.73;100700.75;4861707;28;96948;-84
2022/04/13 07:58:19;;;;;;;25.83;16.88;;;;;;;22.09;28.50;100712.34;4862710;28;97098;-86
2022/04/13 08:00:45;;;;;;;28.20;18.15;;;;;;;22.14;28.35;100716.38;4876532;28;101403;-85
2022/04/13 08:03:11;;;;;;;29.00;17.75;;;;;;;22.54;27.50;100704.44;4873783;28;101026;-85
2022/04/13 08:05:38;;;;;;;30.42;18.33;;;;;;;22.72;27.51;100704.81;4863652;28;97251;-84
2022/04/13 08:08:04;;;;;;;28.58;18.67;;;;;;;22.65;27.32;100698.25;4886193;28;96962;-84
2022/04/13 08:10:29;;;;;;;27.38;18.38;;;;;;;22.76;26.51;100715.16;4880127;28;97616;-86
2022/04/13 08:12:55;;;;;;;26.77;19.40;;;;;;;22.63;26.95;100685.00;4863172;28;101764;-87
2022/04/13 08:15:21;;;;;;;29.15;20.38;;;;;;;22.60;27.17;100687.91;4862772;28;96741;-84
2022/04/13 08:17:46;;;;;;;29.40;19.40;;;;;;;22.87;26.99;100708.97;4860654;28;97117;-83
2022/04/13 08:20:13;;;;;;;31.42;19.23;;;;;;;22.90;26.60;100681.09;4880021;28;100840;-84
2022/04/13 08:22:40;;;;;;;23.63;18.42;;;;;;;23.13;26.41;100676.59;4897236;28;97895;-85
2022/04/13 08:25:06;;;;;;;29.23;18.98;;;;;;;23.50;26.45;100701.22;4865842;28;97294;-85
2022/04/13 08:27:32;;;;;;;26.73;18.38;;;;;;;23.58;26.04;100685.34;4892684;28;97582;-86
2022/04/13 08:30:11;;;;;;;25.48;18.33;;;;;;;23.66;26.01;100687.41;4900442;28;98135;-86
2022/04/13 08:32:36;;;;;;;27.65;17.63;;;;;;;23.99;25.99;100697.16;4896010;28;102097;-85
2022/04/13 08:35:05;;;;;;;26.42;18.33;;;;;;;23.82;25.88;100684.31;4866287;28;96885;-85
2022/04/13 08:37:32;;;;;;;24.58;18.02;;;;;;;24.01;25.37;100695.19;4897414;28;96944;-85
2022/04/13 08:39:58;;;;;;;24.98;17.67;;;;;;;24.16;25.44;100691.22;4891431;28;101497;-86
2022/04/13 08:42:30;;;;;;;24.23;17.00;;;;;;;23.99;25.57;100686.44;4886462;28;98087;-85
2022/04/13 08:45:00;;;;;;;23.35;16.77;;;;;;;23.61;25.51;100684.25;4887304;28;97369;-85
2022/04/13 08:47:26;;;;;;;21.20;16.37;;;;;;;23.84;25.60;100677.00;4894472;28;96981;-84
2022/04/13 08:49:53;;;;;;;22.40;16.70;;;;;;;24.50;25.16;100655.31;4874090;28;102691;-84
2022/04/13 08:52:30;;;;;;;24.15;17.67;;;;;;;24.70;24.99;100681.25;4864242;28;101699;-85
2022/04/13 08:55:09;;;;;;;19.70;15.77;;;;;;;25.27;24.64;100674.38;4880369;28;100367;-88
2022/04/13 08:57:46;;;;;;;23.05;16.38;;;;;;;25.59;23.88;100672.44;4877194;28;97825;-86
2022/04/13 09:00:17;;;;;;;20.38;14.55;;;;;;;25.75;23.83;100670.88;4875764;28;101241;-85
2022/04/13 09:02:57;;;;;;;22.55;16.60;;;;;;;25.99;23.73;100664.25;4891747;28;101221;-84
2022/04/13 09:05:29;;;;;;;24.02;16.38;;;;;;;25.33;24.32;100664.91;4894912;28;96882;-84
2022/04/13 09:08:19;;;;;;;23.33;16.13;;;;;;;25.38;24.51;100668.03;4880132;28;96967;-84
2022/04/13 09:10:46;;;;;;;21.70;16.52;;;;;;;25.97;24.06;100671.59;4892716;28;101820;-85
2022/04/13 09:13:12;;;;;;;19.42;13.77;;;;;;;25.83;23.11;100662.16;4862255;28;98143;-85
2022/04/13 09:15:39;;;;;;;18.10;13.93;;;;;;;26.12;23.27;100647.78;4880685;28;96742;-86
2022/04/13 09:18:07;;;;;;;21.58;14.48;;;;;;;26.69;23.12;100672.84;4890846;28;96979;-87
2022/04/13 09:20:32;;;;;;;22.88;15.25;;;;;;;26.42;22.74;100669.09;4886940;28;97971;-85
2022/04/13 09:22:59;;;;;;;25.15;15.30;;;;;;;26.22;23.30;100648.63;4860046;28;100682;-84
2022/04/13 09:25:27;;;;;;;22.63;15.68;;;;;;;26.56;23.36;100662.44;4858954;28;97058;-86
2022/04/13 09:27:53;;;;;;;18.35;13.88;;;;;;;26.90;22.88;100655.63;4861370;28;98260;-88
2022/04/13 09:30:19;;;;;;;23.05;14.80;;;;;;;26.86;22.71;100661.31;4871089;28;101447;-84
2022/04/13 09:32:45;;;;;;;20.45;13.23;;;;;;;26.82;22.37;100664.44;4859849;28;101427;-83
2022/04/13 09:35:11;;;;;;;19.33;13.60;;;;;;;26.82;22.37;100654.53;4881299;28;97010;-84
2022/04/13 09:37:36;;;;;;;22.65;13.93;;;;;;;27.00;22.52;100662.66;4894226;28;97538;-83
2022/04/13 09:40:02;;;;;;;21.33;14.02;;;;;;;27.22;22.81;100647.94;4896230;28;98185;-85
2022/04/13 09:42:28;;;;;;;21.48;16.38;;;;;;;27.07;22.92;100652.13;4880799;28;101336;-85
2022/04/13 09:44:58;;;;;;;25.13;16.55;;;;;;;26.86;23.04;100655.91;4864450;28;97528;-84
2022/04/13 09:47:30;;;;;;;23.38;16.95;;;;;;;26.33;23.42;100663.75;4897264;28;96947;-84
2022/04/13 09:49:56;;;;;;;22.05;15.82;;;;;;;26.35;23.44;100641.06;4884144;28;98037;-82
2022/04/13 09:52:37;;;;;;;22.55;15.18;;;;;;;26.70;23.30;100660.25;4879286;28;101775;-83
2022/04/13 09:55:06;;;;;;;;;;;;;;;26.17;23.53;100651.75;4899320;28;96814;-83
2022/04/13 09:57:32;;;;;;;21.27;15.50;;;;;;;25.84;23.34;100646.84;4880848;28;97245;-88
2022/04/13 10:00:06;;;;;;;19.65;13.98;;;;;;;25.12;23.43;100634.59;4874345;28;101550;-84
2022/04/13 10:02:37;;;;;;;19.77;14.02;;;;;;;24.72;24.23;100651.56;4866410;28;97759;-83
2022/04/13 10:05:05;;;;;;;17.48;13.07;;;;;;;24.71;24.29;100640.00;4883755;28;96900;-83
2022/04/13 10:07:30;;;;;;;18.50;14.32;;;;;;;24.53;24.79;100641.63;4879600;28;97176;-83
2022/04/13 10:09:56;;;;;;;18.35;12.55;;;;;;;24.11;25.36;100630.91;4896206;28;101550;-83
2022/04/13 10:12:22;;;;;;;16.55;11.55;;;;;;;23.79;24.24;100630.97;4880668;28;101136;-80
2022/04/13 10:14:47;;;;;;;17.45;10.75;;;;;;;23.93;24.10;100647.59;4880437;28;97442;-81
2022/04/13 10:17:15;;;;;;;14.32;10.68;;;;;;;23.58;23.99;100599.63;4879329;28;97054;-82
2022/04/13 10:19:41;;;;;;;17.70;11.70;;;;;;;23.86;24.57;100645.56;4864919;28;101652;-82
2022/04/13 10:22:07;;;;;;;17.08;11.77;;;;;;;23.60;23.99;100635.19;4879973;28;100377;-81
2022/04/13 10:24:40;;;;;;;21.13;12.95;;;;;;;22.95;25.45;100615.56;4881031;28;96827;-81
2022/04/13 10:27:15;;;;;;;20.58;13.02;;;;;;;22.40;25.76;100636.00;4865003;28;96978;-79
2022/04/13 10:29:43;;;;;;;23.92;13.55;;;;;;;21.82;27.03;100643.97;4881660;28;101942;-85
2022/04/13 10:32:10;;;;;;;21.13;13.32;;;;;;;21.25;27.31;100637.50;4865316;28;100243;-83
2022/04/13 10:34:41;;;;;;;20.08;14.18;;;;;;;21.36;28.02;100636.75;4899636;28;97021;-84
2022/04/13 10:37:08;;;;;;;23.33;13.38;;;;;;;21.03;27.01;100632.91;4886054;28;96884;-84
2022/04/13 10:39:34;;;;;;;23.00;13.20;;;;;;;20.68;27.61;100618.56;4865209;28;101642;-83
2022/04/13 10:42:02;;;;;;;20.55;13.50;;;;;;;20.66;28.08;100632.03;4880332;28;100815;-87
2022/04/13 10:44:37;;;;;;;18.77;11.25;;;;;;;20.76;27.45;100645.56;4889420;28;96765;-84
2022/04/13 10:47:05;;;;;;;16.63;10.05;;;;;;;20.67;26.96;100611.53;4892385;28;96822;-84
2022/04/13 10:49:40;;;;;;;12.55;9.10;;;;;;;20.76;25.44;100624.22;4864043;28;100935;-85
2022/04/13 10:52:08;;;;;;;18.80;12.57;;;;;;;20.56;27.29;100621.16;4895885;28;101660;-80
2022/04/13 10:54:37;;;;;;;20.92;13.45;;;;;;;20.61;28.42;100628.84;4897221;28;96799;-81
2022/04/13 10:57:05;;;;;;;20.08;11.93;;;;;;;20.31;28.17;100624.69;4866087;28;96956;-86
2022/04/13 10:59:52;;;;;;;15.48;10.48;;;;;;;20.04;27.39;100624.78;4899436;28;101317;-84
2022/04/13 11:02:35;;;;;;;21.38;12.90;;;;;;;19.87;28.74;100625.94;4868233;28;101347;-82
2022/04/13 11:05:00;;;;;;;18.88;12.23;;;;;;;19.66;28.92;100608.72;4880664;28;96918;-83
2022/04/13 11:07:26;;;;;;;14.88;10.23;;;;;;;19.70;27.92;100620.91;4875173;28;97177;-79
2022/04/13 11:09:56;;;;;;;19.50;11.95;;;;;;;19.52;29.11;100611.44;4883093;28;101226;-79
2022/04/13 11:12:24;;;;;;;19.52;11.52;;;;;;;19.54;29.07;100618.34;4882937;28;101413;-79
2022/04/13 11:14:52;;;;;;;20.27;11.88;;;;;;;19.54;29.52;100622.84;4867162;28;97147;-79
2022/04/13 11:17:27;;;;;;;23.10;13.43;;;;;;;19.59;29.77;100620.72;4880867;28;97317;-78
2022/04/13 11:20:18;;;;;;;17.63;12.00;;;;;;;19.56;29.90;100619.13;4842920;28;101265;-80
2022/04/13 11:22:43;;;;;;;17.23;10.90;;;;;;;19.57;29.06;100618.16;4872835;28;101991;-84
2022/04/13 11:25:09;;;;;;;17.10;11.07;;;;;;;19.46;29.17;100620.69;4861807;28;96923;-84
2022/04/13 11:28:01;;;;;;;20.15;12.75;;;;;;;19.16;29.81;100610.25;4873142;28;97266;-82
2022/04/13 11:30:26;;;;;;;20.23;13.57;;;;;;;19.15;30.30;100603.22;4844713;28;101751;-81
2022/04/13 11:32:52;;;;;;;25.05;13.70;;;;;;;19.14;30.77;100615.69;4861202;28;97877;-80
2022/04/13 11:35:25;;;;;;;20.52;12.95;;;;;;;19.01;30.43;100596.13;4860848;28;97138;-80
2022/04/13 11:38:05;;;;;;;22.50;13.43;;;;;;;19.06;30.72;100612.66;4860883;28;96999;-80
2022/04/13 11:40:31;;;;;;;22.50;12.43;;;;;;;19.11;30.01;100615.00;4845149;28;101531;-80
2022/04/13 11:43:03;;;;;;;18.88;13.60;;;;;;;19.03;30.33;100625.31;4876839;28;101400;-80
2022/04/13 11:45:29;;;;;;;16.15;10.85;;;;;;;18.93;29.85;100612.59;4852017;28;96731;-78